createdAt,value
2022-10-03T00:02:43.859Z,73.51
2022-10-03T00:05:22.397Z,72.32
2022-10-03T00:08:17.386Z,71.51
2022-10-03T00:11:12.179Z,71.66
2022-10-03T00:14:00.217Z,72.64
2022-10-03T00:16:54.499Z,72.83
2022-10-03T00:19:44.221Z,73.04
2022-10-03T00:22:27.207Z,72.76
2022-10-03T00:25:15.432Z,73.50
2022-10-03T00:27:49.828Z,73.77
2022-10-03T00:30:24.609Z,73.69
2022-10-03T00:33:09.610Z,73.21
2022-10-03T00:35:59.714Z,73.26
2022-10-03T00:38:29.038Z,72.75
2022-10-03T00:41:27.716Z,72.59
2022-10-03T00:44:16.731Z,73.25
2022-10-03T00:47:09.763Z,74.16
2022-10-03T00:50:18.163Z,73.79
2022-10-03T00:52:48.526Z,73.34
2022-10-03T00:55:17.967Z,72.90
2022-10-03T00:57:51.887Z,74.44
2022-10-03T01:00:18.610Z,74.27
2022-10-03T01:03:25.321Z,73.21
2022-10-03T01:06:15.694Z,73.21
2022-10-03T01:08:48.306Z,73.76
2022-10-03T01:11:23.338Z,74.64
2022-10-03T01:14:02.191Z,74.65
2022-10-03T01:17:01.574Z,74.56
2022-10-03T01:19:53.888Z,74.57
2022-10-03T01:22:41.786Z,74.38
2022-10-03T01:25:19.139Z,74.17
2022-10-03T01:28:23.536Z,74.81
2022-10-03T01:30:56.078Z,73.58
2022-10-03T01:33:35.196Z,73.69
2022-10-03T01:36:23.715Z,74.27
2022-10-03T01:39:02.243Z,73.71
2022-10-03T01:41:38.062Z,73.29
2022-10-03T01:44:13.353Z,73.25
2022-10-03T01:46:49.358Z,72.87
2022-10-03T01:49:33.167Z,72.00
2022-10-03T01:52:25.615Z,71.92
2022-10-03T01:55:20.233Z,73.27
2022-10-03T01:57:50.605Z,73.00
2022-10-03T02:00:20.339Z,73.21
2022-10-03T02:02:54.974Z,73.35
2022-10-03T02:05:35.392Z,73.53
2022-10-03T02:08:27.404Z,74.55
2022-10-03T02:11:01.700Z,74.85
2022-10-03T02:13:41.599Z,75.10
2022-10-03T02:16:11.391Z,75.26
2022-10-03T02:19:00.562Z,74.43
2022-10-03T02:21:32.148Z,74.13
2022-10-03T02:24:17.779Z,74.49
2022-10-03T02:26:59.879Z,74.39
2022-10-03T02:29:29.314Z,75.19
2022-10-03T02:32:29.832Z,75.44
2022-10-03T02:35:10.594Z,74.83
2022-10-03T02:38:05.617Z,74.78
2022-10-03T02:40:48.371Z,74.66
2022-10-03T02:43:43.501Z,73.73
2022-10-03T02:46:34.474Z,74.52
2022-10-03T02:49:19.524Z,75.70
2022-10-03T02:52:14.067Z,74.95
2022-10-03T02:55:37.904Z,74.95
2022-10-03T02:58:32.021Z,74.84
2022-10-03T03:01:10.735Z,75.02
2022-10-03T03:03:52.307Z,74.68
2022-10-03T03:06:49.760Z,75.05
2022-10-03T03:09:41.226Z,75.43
2022-10-03T03:12:20.025Z,75.18
2022-10-03T03:15:08.512Z,75.70
2022-10-03T03:17:51.532Z,75.09
2022-10-03T03:20:28.648Z,74.53
2022-10-03T03:23:04.364Z,75.54
2022-10-03T03:25:59.055Z,75.66
2022-10-03T03:28:51.481Z,76.07
2022-10-03T03:31:29.901Z,75.55
2022-10-03T03:34:07.147Z,75.15
2022-10-03T03:36:51.587Z,74.43
2022-10-03T03:39:40.122Z,74.93
2022-10-03T03:42:22.411Z,73.91
2022-10-03T03:45:12.351Z,75.04
2022-10-03T03:48:07.649Z,74.61
2022-10-03T03:50:53.625Z,74.32
2022-10-03T03:53:45.224Z,75.16
2022-10-03T03:56:43.040Z,74.18
2022-10-03T03:59:21.831Z,74.80
2022-10-03T04:02:09.948Z,73.92
2022-10-03T04:04:42.337Z,74.17
2022-10-03T04:07:39.884Z,74.01
2022-10-03T04:10:30.252Z,73.53
2022-10-03T04:13:05.734Z,73.59
2022-10-03T04:15:41.341Z,73.56
2022-10-03T04:18:51.398Z,74.05
2022-10-03T04:21:35.290Z,73.94
2022-10-03T04:24:22.008Z,73.75
2022-10-03T04:27:25.551Z,73.86
2022-10-03T04:30:10.500Z,73.99
2022-10-03T04:33:01.621Z,72.92
2022-10-03T04:35:36.388Z,73.24
2022-10-03T04:38:05.873Z,72.98
2022-10-03T04:41:23.427Z,73.92
2022-10-03T04:44:03.014Z,72.82
2022-10-03T04:47:03.064Z,73.70
2022-10-03T04:49:36.223Z,74.72
2022-10-03T04:52:24.563Z,73.88
2022-10-03T04:55:20.855Z,73.98
2022-10-03T04:58:04.727Z,73.88
2022-10-03T05:00:46.334Z,73.74
2022-10-03T05:03:30.359Z,74.02
2022-10-03T05:06:00.899Z,74.36
2022-10-03T05:08:44.150Z,73.72
2022-10-03T05:11:37.495Z,73.24
2022-10-03T05:14:10.931Z,72.94
2022-10-03T05:17:06.158Z,73.25
2022-10-03T05:19:38.960Z,72.47
2022-10-03T05:22:09.410Z,73.24
2022-10-03T05:24:54.270Z,72.85
2022-10-03T05:27:41.475Z,73.75
2022-10-03T05:30:14.596Z,74.38
2022-10-03T05:33:22.571Z,72.74
2022-10-03T05:36:02.273Z,72.88
2022-10-03T05:38:49.227Z,73.77
2022-10-03T05:41:26.090Z,73.69
2022-10-03T05:44:16.567Z,72.90
2022-10-03T05:47:31.128Z,72.58
2022-10-03T05:50:30.028Z,72.74
2022-10-03T05:53:31.635Z,71.68
2022-10-03T05:56:04.069Z,71.23
2022-10-03T05:58:56.887Z,71.54
2022-10-03T06:01:50.560Z,71.47
2022-10-03T06:04:35.478Z,72.10
2022-10-03T06:07:22.263Z,72.24
2022-10-03T06:10:20.402Z,72.82
2022-10-03T06:13:05.815Z,73.37
2022-10-03T06:15:56.517Z,73.82
2022-10-03T06:18:43.123Z,73.92
2022-10-03T06:21:28.698Z,73.63
2022-10-03T06:24:20.351Z,73.41
2022-10-03T06:27:11.767Z,74.12
2022-10-03T06:30:11.642Z,73.70
2022-10-03T06:32:51.238Z,73.66
2022-10-03T06:35:59.812Z,72.69
2022-10-03T06:39:21.980Z,73.41
2022-10-03T06:42:18.655Z,73.12
2022-10-03T06:45:19.388Z,73.00
2022-10-03T06:48:04.767Z,71.68
2022-10-03T06:50:52.955Z,72.59
2022-10-03T06:53:44.389Z,72.47
2022-10-03T06:56:22.010Z,73.02
2022-10-03T06:59:09.830Z,73.23
2022-10-03T07:01:50.776Z,71.94
2022-10-03T07:04:40.241Z,72.17
2022-10-03T07:07:23.730Z,73.90
2022-10-03T07:09:58.093Z,73.25
2022-10-03T07:12:28.151Z,73.69
2022-10-03T07:15:14.762Z,74.29
2022-10-03T07:17:59.901Z,73.61
2022-10-03T07:20:55.715Z,74.23
2022-10-03T07:23:40.714Z,73.16
2022-10-03T07:26:28.893Z,73.19
2022-10-03T07:29:10.459Z,74.06
2022-10-03T07:31:49.642Z,74.58
2022-10-03T07:34:53.784Z,74.61
2022-10-03T07:37:39.485Z,74.80
2022-10-03T07:40:41.050Z,75.44
2022-10-03T07:43:31.666Z,75.38
2022-10-03T07:46:04.392Z,75.60
2022-10-03T07:48:51.325Z,74.37
2022-10-03T07:51:17.985Z,74.08
2022-10-03T07:53:47.449Z,74.04
2022-10-03T07:56:34.029Z,74.05
2022-10-03T07:59:04.328Z,73.86
2022-10-03T08:01:30.941Z,72.74
2022-10-03T08:04:31.752Z,71.72
2022-10-03T08:07:03.710Z,71.74
2022-10-03T08:09:54.467Z,72.68
2022-10-03T08:12:56.486Z,72.42
2022-10-03T08:16:05.626Z,73.03
2022-10-03T08:18:56.000Z,72.65
2022-10-03T08:21:58.033Z,71.16
2022-10-03T08:24:34.387Z,70.85
2022-10-03T08:27:28.038Z,71.38
2022-10-03T08:30:16.850Z,70.66
2022-10-03T08:33:17.117Z,71.00
2022-10-03T08:36:08.236Z,70.54
2022-10-03T08:38:48.985Z,70.21
2022-10-03T08:41:53.323Z,69.48
2022-10-03T08:44:30.945Z,69.30
2022-10-03T08:47:16.098Z,68.55
2022-10-03T08:50:05.744Z,68.90
2022-10-03T08:53:00.730Z,68.85
2022-10-03T08:55:43.047Z,67.37
2022-10-03T08:58:27.750Z,66.55
2022-10-03T09:01:09.377Z,65.03
2022-10-03T09:03:57.819Z,66.64
2022-10-03T09:07:12.221Z,66.52
2022-10-03T09:09:59.411Z,67.26
2022-10-03T09:12:32.182Z,66.31
2022-10-03T09:15:33.844Z,66.25
2022-10-03T09:18:15.849Z,66.67
2022-10-03T09:20:48.971Z,66.09
2022-10-03T09:23:46.054Z,65.52
2022-10-03T09:26:44.950Z,64.68
2022-10-03T09:29:21.986Z,64.78
2022-10-03T09:32:26.405Z,64.98
2022-10-03T09:35:29.959Z,66.49
2022-10-03T09:38:21.540Z,66.30
2022-10-03T09:41:09.818Z,64.56
2022-10-03T09:43:57.659Z,66.66
2022-10-03T09:46:24.257Z,64.90
2022-10-03T09:49:13.438Z,67.13
2022-10-03T09:52:10.173Z,67.40
2022-10-03T09:54:59.241Z,65.74
2022-10-03T09:57:55.081Z,65.68
2022-10-03T10:00:49.969Z,64.30
2022-10-03T10:03:40.067Z,65.66
2022-10-03T10:06:09.856Z,65.70
2022-10-03T10:09:13.934Z,65.22
2022-10-03T10:11:49.368Z,65.56
2022-10-03T10:14:49.825Z,65.10
2022-10-03T10:17:28.958Z,65.15
2022-10-03T10:20:20.672Z,65.36
2022-10-03T10:23:08.083Z,63.01
2022-10-03T10:26:16.277Z,64.07
2022-10-03T10:29:23.423Z,64.00
2022-10-03T10:32:28.928Z,63.55
2022-10-03T10:35:28.977Z,62.65
2022-10-03T10:38:18.798Z,61.89
2022-10-03T10:40:55.056Z,58.38
2022-10-03T10:43:43.315Z,57.69
2022-10-03T10:46:41.201Z,57.70
2022-10-03T10:49:46.065Z,57.78
2022-10-03T10:52:16.579Z,56.77
2022-10-03T10:55:36.810Z,56.35
2022-10-03T10:58:40.467Z,56.95
2022-10-03T11:01:43.911Z,57.27
2022-10-03T11:04:49.944Z,56.62
2022-10-03T11:07:31.155Z,56.97
2022-10-03T11:10:01.020Z,56.22
2022-10-03T11:13:11.400Z,56.46
2022-10-03T11:15:47.795Z,56.30
2022-10-03T11:18:36.534Z,56.60
2022-10-03T11:21:15.160Z,56.54
2022-10-03T11:24:15.320Z,54.98
2022-10-03T11:26:56.910Z,54.10
2022-10-03T11:30:02.067Z,52.62
2022-10-03T11:32:47.214Z,52.00
2022-10-03T11:35:38.524Z,50.89
2022-10-03T11:38:21.157Z,51.81
2022-10-03T11:41:09.834Z,50.75
2022-10-03T11:43:58.337Z,52.88
2022-10-03T11:46:38.613Z,53.13
2022-10-03T11:49:24.239Z,51.79
2022-10-03T11:52:09.482Z,52.18
2022-10-03T11:54:40.955Z,53.33
2022-10-03T11:57:22.720Z,52.98
2022-10-03T12:00:04.927Z,53.79
2022-10-03T12:02:53.788Z,54.15
2022-10-03T12:05:48.817Z,54.88
2022-10-03T12:08:55.070Z,56.03
2022-10-03T12:11:46.050Z,54.27
2022-10-03T12:14:29.428Z,53.62
2022-10-03T12:17:12.671Z,54.40
2022-10-03T12:19:57.369Z,53.46
2022-10-03T12:22:36.540Z,53.34
2022-10-03T12:25:30.588Z,52.72
2022-10-03T12:28:01.276Z,51.34
2022-10-03T12:30:37.914Z,51.04
2022-10-03T12:33:43.492Z,49.50
2022-10-03T12:36:17.465Z,50.05
2022-10-03T12:38:52.569Z,49.79
2022-10-03T12:41:54.476Z,48.72
2022-10-03T12:44:48.759Z,47.93
2022-10-03T12:47:54.179Z,48.97
2022-10-03T12:50:39.437Z,48.32
2022-10-03T12:53:17.933Z,48.00
2022-10-03T12:55:51.378Z,46.61
2022-10-03T12:58:55.825Z,44.81
2022-10-03T13:01:41.814Z,43.81
2022-10-03T13:04:21.707Z,43.94
2022-10-03T13:07:09.712Z,45.82
2022-10-03T13:10:31.244Z,46.70
2022-10-03T13:13:06.881Z,47.46
2022-10-03T13:15:53.360Z,47.77
2022-10-03T13:18:48.840Z,48.35
2022-10-03T13:21:44.945Z,47.93
2022-10-03T13:24:27.607Z,47.89
2022-10-03T13:27:08.879Z,49.04
2022-10-03T13:29:43.505Z,48.09
2022-10-03T13:32:25.818Z,48.61
2022-10-03T13:35:24.296Z,48.31
2022-10-03T13:38:19.403Z,48.91
2022-10-03T13:41:19.249Z,48.84
2022-10-03T13:44:10.781Z,48.26
2022-10-03T13:46:45.042Z,49.68
2022-10-03T13:49:28.268Z,49.04
2022-10-03T13:52:15.545Z,49.36
2022-10-03T13:55:19.573Z,49.70
2022-10-03T13:58:19.595Z,50.73
2022-10-03T14:01:11.659Z,50.40
2022-10-03T14:04:06.908Z,49.99
2022-10-03T14:06:43.773Z,51.14
2022-10-03T14:10:06.307Z,50.89
2022-10-03T14:13:10.655Z,50.44
2022-10-03T14:15:49.503Z,50.41
2022-10-03T14:18:18.806Z,50.56
2022-10-03T14:21:04.004Z,50.51
2022-10-03T14:24:16.323Z,50.14
2022-10-03T14:27:24.380Z,51.03
2022-10-03T14:30:34.112Z,51.23
2022-10-03T14:33:18.218Z,50.32
2022-10-03T14:35:59.693Z,51.86
2022-10-03T14:38:46.228Z,51.98
2022-10-03T14:41:21.032Z,51.89
2022-10-03T14:43:54.466Z,52.16
2022-10-03T14:46:26.335Z,53.15
2022-10-03T14:48:59.365Z,53.32
2022-10-03T14:51:40.937Z,53.46
2022-10-03T14:54:17.371Z,52.93
2022-10-03T14:56:49.758Z,53.08
2022-10-03T14:59:36.749Z,53.35
2022-10-03T15:02:35.875Z,53.68
2022-10-03T15:05:14.986Z,52.51
2022-10-03T15:07:44.830Z,54.37
2022-10-03T15:10:23.723Z,53.98
2022-10-03T15:12:58.800Z,54.56
2022-10-03T15:15:29.333Z,54.43
2022-10-03T15:18:06.609Z,53.70
2022-10-03T15:20:42.938Z,54.97
2022-10-03T15:23:22.961Z,53.43
2022-10-03T15:26:00.626Z,54.29
2022-10-03T15:28:36.891Z,54.48
2022-10-03T15:31:10.350Z,54.81
2022-10-03T15:33:39.246Z,55.02
2022-10-03T15:36:26.430Z,54.95
2022-10-03T15:39:00.578Z,55.19
2022-10-03T15:41:35.167Z,55.42
2022-10-03T15:44:17.223Z,54.78
2022-10-03T15:46:48.368Z,53.36
2022-10-03T15:49:34.825Z,54.61
2022-10-03T15:52:20.363Z,55.26
2022-10-03T15:55:06.693Z,54.39
2022-10-03T15:57:44.606Z,55.17
2022-10-03T16:00:26.471Z,54.00
2022-10-03T16:03:08.608Z,54.83
2022-10-03T16:05:36.414Z,54.24
2022-10-03T16:08:16.636Z,55.11
2022-10-03T16:10:58.394Z,54.86
2022-10-03T16:13:42.291Z,54.88
2022-10-03T16:16:24.263Z,55.76
2022-10-03T16:18:58.472Z,56.40
2022-10-03T16:21:37.134Z,55.05
2022-10-03T16:24:08.142Z,56.55
2022-10-03T16:26:48.172Z,55.85
2022-10-03T16:29:23.993Z,56.35
2022-10-03T16:32:09.258Z,57.29
2022-10-03T16:34:43.293Z,57.34
2022-10-03T16:37:23.551Z,58.45
2022-10-03T16:40:06.657Z,58.33
2022-10-03T16:42:45.620Z,58.70
2022-10-03T16:45:44.712Z,58.52
2022-10-03T16:48:48.097Z,58.99
2022-10-03T16:51:28.181Z,59.18
2022-10-03T16:53:56.620Z,59.65
2022-10-03T16:56:33.052Z,59.99
2022-10-03T16:59:06.852Z,59.64
2022-10-03T17:01:44.751Z,60.17
2022-10-03T17:04:25.892Z,59.64
2022-10-03T17:07:30.674Z,59.91
2022-10-03T17:10:01.699Z,59.56
2022-10-03T17:12:39.969Z,59.70
2022-10-03T17:15:23.788Z,60.18
2022-10-03T17:18:02.766Z,59.36
2022-10-03T17:20:29.381Z,59.66
2022-10-03T17:23:07.261Z,59.96
2022-10-03T17:25:58.713Z,59.71
2022-10-03T17:28:38.143Z,59.37
2022-10-03T17:31:15.295Z,59.08
2022-10-03T17:33:56.016Z,59.35
2022-10-03T17:36:35.832Z,59.85
2022-10-03T17:39:20.531Z,60.24
2022-10-03T17:42:28.447Z,59.89
2022-10-03T17:45:16.859Z,60.29
2022-10-03T17:47:43.438Z,60.45
2022-10-03T17:50:19.196Z,60.08
2022-10-03T17:52:48.584Z,60.15
2022-10-03T17:55:41.343Z,60.33
2022-10-03T17:58:21.583Z,60.10
2022-10-03T18:01:06.172Z,59.98
2022-10-03T18:03:37.881Z,60.52
2022-10-03T18:06:37.087Z,60.32
2022-10-03T18:09:15.683Z,60.03
2022-10-03T18:11:45.687Z,60.48
2022-10-03T18:14:18.271Z,60.05
2022-10-03T18:16:54.206Z,60.17
2022-10-03T18:19:29.907Z,60.27
2022-10-03T18:21:56.616Z,60.65
2022-10-03T18:24:38.980Z,60.64
2022-10-03T18:27:33.684Z,60.73
2022-10-03T18:30:05.949Z,61.76
2022-10-03T18:32:38.228Z,61.65
2022-10-03T18:35:21.061Z,61.47
2022-10-03T18:38:04.244Z,60.89
2022-10-03T18:40:35.757Z,61.20
2022-10-03T18:43:06.061Z,61.19
2022-10-03T18:45:44.639Z,61.62
2022-10-03T18:48:19.554Z,61.16
2022-10-03T18:51:04.687Z,61.93
2022-10-03T18:54:22.684Z,62.01
2022-10-03T18:57:28.386Z,61.58
2022-10-03T19:00:09.365Z,61.71
2022-10-03T19:02:49.913Z,62.46
2022-10-03T19:05:32.262Z,61.94
2022-10-03T19:08:20.473Z,62.35
2022-10-03T19:10:55.383Z,62.58
2022-10-03T19:13:28.452Z,62.32
2022-10-03T19:16:32.396Z,62.05
2022-10-03T19:19:34.352Z,61.31
2022-10-03T19:22:05.705Z,62.29
2022-10-03T19:24:57.183Z,62.58
2022-10-03T19:27:29.821Z,62.28
2022-10-03T19:29:58.013Z,62.13
2022-10-03T19:32:47.242Z,62.31
2022-10-03T19:35:19.956Z,62.42
2022-10-03T19:37:51.996Z,62.36
2022-10-03T19:40:45.270Z,62.50
2022-10-03T19:43:21.302Z,62.93
2022-10-03T19:45:53.917Z,62.96
2022-10-03T19:48:22.513Z,63.65
2022-10-03T19:50:50.499Z,63.85
2022-10-03T19:53:19.188Z,63.79
2022-10-03T19:55:47.879Z,63.47
2022-10-03T19:58:20.868Z,63.53
2022-10-03T20:00:53.380Z,63.68
2022-10-03T20:03:34.630Z,63.27
2022-10-03T20:06:05.251Z,63.29
2022-10-03T20:08:56.530Z,63.55
2022-10-03T20:11:42.193Z,63.17
2022-10-03T20:14:27.913Z,62.88
2022-10-03T20:17:02.281Z,63.35
2022-10-03T20:19:35.327Z,62.94
2022-10-03T20:22:04.792Z,61.80
2022-10-03T20:24:39.082Z,61.34
2022-10-03T20:27:25.950Z,61.43
2022-10-03T20:30:18.547Z,62.93
2022-10-03T20:32:46.364Z,63.76
2022-10-03T20:35:19.228Z,64.40
2022-10-03T20:38:07.997Z,65.53
2022-10-03T20:40:38.403Z,65.70
2022-10-03T20:43:43.270Z,67.60
2022-10-03T20:46:22.112Z,66.16
2022-10-03T20:49:00.365Z,66.95
2022-10-03T20:51:41.381Z,66.75
2022-10-03T20:54:17.760Z,64.75
2022-10-03T20:56:58.996Z,64.58
2022-10-03T21:00:12.512Z,65.31
2022-10-03T21:03:18.307Z,66.92
2022-10-03T21:05:52.040Z,68.27
2022-10-03T21:08:29.959Z,68.75
2022-10-03T21:11:03.435Z,68.83
2022-10-03T21:13:59.653Z,69.29
2022-10-03T21:16:30.593Z,69.44
2022-10-03T21:19:02.065Z,70.70
2022-10-03T21:21:42.928Z,70.18
2022-10-03T21:24:32.174Z,71.04
2022-10-03T21:27:19.850Z,71.32
2022-10-03T21:29:58.708Z,71.73
2022-10-03T21:32:43.981Z,70.27
2022-10-03T21:35:35.956Z,70.44
2022-10-03T21:38:19.194Z,72.25
2022-10-03T21:41:03.677Z,73.03
2022-10-03T21:43:47.187Z,73.70
2022-10-03T21:46:44.470Z,73.96
2022-10-03T21:49:20.009Z,72.99
2022-10-03T21:51:49.486Z,72.28
2022-10-03T21:54:33.865Z,71.89
2022-10-03T21:57:14.376Z,73.29
2022-10-03T22:00:11.752Z,72.82
2022-10-03T22:02:45.922Z,73.03
2022-10-03T22:05:30.068Z,72.65
2022-10-03T22:07:56.870Z,71.95
2022-10-03T22:10:36.341Z,71.41
2022-10-03T22:13:09.336Z,72.11
2022-10-03T22:15:44.964Z,71.72
2022-10-03T22:18:20.793Z,71.36
2022-10-03T22:21:01.311Z,71.37
2022-10-03T22:23:39.935Z,71.29
2022-10-03T22:26:06.478Z,70.73
2022-10-03T22:28:45.016Z,70.33
2022-10-03T22:31:27.051Z,69.86
2022-10-03T22:34:12.454Z,70.63
2022-10-03T22:36:40.196Z,70.07
2022-10-03T22:39:10.877Z,70.68
2022-10-03T22:41:39.957Z,70.33
2022-10-03T22:44:10.117Z,69.58
2022-10-03T22:46:40.449Z,69.89
2022-10-03T22:49:21.046Z,70.25
2022-10-03T22:51:51.319Z,69.35
2022-10-03T22:54:18.976Z,69.41
2022-10-03T22:56:52.076Z,69.46
2022-10-03T22:59:22.619Z,69.67
2022-10-03T23:01:53.839Z,69.32
2022-10-03T23:04:43.481Z,69.37
2022-10-03T23:07:26.530Z,67.79
2022-10-03T23:10:06.642Z,68.66
2022-10-03T23:13:14.783Z,68.80
2022-10-03T23:15:47.410Z,68.07
2022-10-03T23:18:39.122Z,68.42
2022-10-03T23:21:07.543Z,68.11
2022-10-03T23:23:42.153Z,67.86
2022-10-03T23:26:39.424Z,67.18
2022-10-03T23:29:11.480Z,67.64
2022-10-03T23:31:53.502Z,68.03
2022-10-03T23:34:37.343Z,67.46
2022-10-03T23:37:20.633Z,67.18
2022-10-03T23:39:53.350Z,67.97
2022-10-03T23:42:32.416Z,66.19
2022-10-03T23:45:00.817Z,67.14
2022-10-03T23:47:32.670Z,67.43
2022-10-03T23:50:02.493Z,66.97
2022-10-03T23:52:36.561Z,67.74
2022-10-03T23:55:06.911Z,66.92
2022-10-03T23:57:42.040Z,67.08
